sensor_id;sensor_type;location;lat;lon;timestamp;pressure;altitude;pressure_sealevel;temperature;humidity
42621;BME280;28252;53.336;-6.298;2022-12-18T00:00:05;100827.00;;;21.83;41.97
42621;BME280;28252;53.336;-6.298;2022-12-18T00:00:40;100824.00;;;21.78;42.09
42621;BME280;28252;53.336;-6.298;2022-12-18T00:01:46;100824.00;;;21.78;42.16
42621;BME280;28252;53.336;-6.298;2022-12-18T00:02:17;100823.34;;;21.76;41.91
42621;BME280;28252;53.336;-6.298;2022-12-18T00:02:48;100824.16;;;21.77;42.05
42621;BME280;28252;53.336;-6.298;2022-12-18T00:03:19;100823.03;;;21.71;42.19
42621;BME280;28252;53.336;-6.298;2022-12-18T00:03:50;100823.84;;;21.72;42.14
42621;BME280;28252;53.336;-6.298;2022-12-18T00:04:23;100820.44;;;21.78;41.74
42621;BME280;28252;53.336;-6.298;2022-12-18T00:04:54;100824.34;;;21.75;41.83
42621;BME280;28252;53.336;-6.298;2022-12-18T00:05:25;100824.69;;;21.72;41.70
42621;BME280;28252;53.336;-6.298;2022-12-18T00:05:56;100826.75;;;21.70;42.07
42621;BME280;28252;53.336;-6.298;2022-12-18T00:06:27;100824.03;;;21.70;41.87
42621;BME280;28252;53.336;-6.298;2022-12-18T00:06:59;100826.56;;;21.72;41.92
42621;BME280;28252;53.336;-6.298;2022-12-18T00:07:30;100828.44;;;21.71;41.69
42621;BME280;28252;53.336;-6.298;2022-12-18T00:08:01;100822.84;;;21.73;41.84
42621;BME280;28252;53.336;-6.298;2022-12-18T00:08:32;100821.81;;;21.74;41.84
42621;BME280;28252;53.336;-6.298;2022-12-18T00:09:04;100830.50;;;21.69;41.89
42621;BME280;28252;53.336;-6.298;2022-12-18T00:09:36;100823.84;;;21.72;41.89
42621;BME280;28252;53.336;-6.298;2022-12-18T00:10:07;100826.09;;;21.68;41.84
42621;BME280;28252;53.336;-6.298;2022-12-18T00:10:38;100826.44;;;21.65;41.88
42621;BME280;28252;53.336;-6.298;2022-12-18T00:11:13;100819.50;;;21.62;41.97
42621;BME280;28252;53.336;-6.298;2022-12-18T00:11:44;100819.00;;;21.59;41.99
42621;BME280;28252;53.336;-6.298;2022-12-18T00:12:15;100818.16;;;21.58;42.01
42621;BME280;28252;53.336;-6.298;2022-12-18T00:12:46;100814.56;;;21.66;41.73
42621;BME280;28252;53.336;-6.298;2022-12-18T00:13:17;100821.19;;;21.63;41.81
42621;BME280;28252;53.336;-6.298;2022-12-18T00:13:48;100815.28;;;21.60;41.97
42621;BME280;28252;53.336;-6.298;2022-12-18T00:14:19;100818.16;;;21.58;41.91
42621;BME280;28252;53.336;-6.298;2022-12-18T00:14:50;100815.63;;;21.57;41.96
42621;BME280;28252;53.336;-6.298;2022-12-18T00:15:21;100817.66;;;21.55;41.94
42621;BME280;28252;53.336;-6.298;2022-12-18T00:15:52;100817.31;;;21.58;41.85
42621;BME280;28252;53.336;-6.298;2022-12-18T00:16:24;100818.66;;;21.62;41.68
42621;BME280;28252;53.336;-6.298;2022-12-18T00:16:55;100814.94;;;21.63;41.77
42621;BME280;28252;53.336;-6.298;2022-12-18T00:17:26;100813.56;;;21.59;41.39
42621;BME280;28252;53.336;-6.298;2022-12-18T00:17:57;100819.69;;;21.61;41.56
42621;BME280;28252;53.336;-6.298;2022-12-18T00:18:28;100821.34;;;21.62;41.51
42621;BME280;28252;53.336;-6.298;2022-12-18T00:18:59;100817.31;;;21.58;41.69
42621;BME280;28252;53.336;-6.298;2022-12-18T00:19:30;100817.81;;;21.61;41.44
42621;BME280;28252;53.336;-6.298;2022-12-18T00:20:01;100817.31;;;21.58;41.31
42621;BME280;28252;53.336;-6.298;2022-12-18T00:20:39;100820.03;;;21.58;41.64
42621;BME280;28252;53.336;-6.298;2022-12-18T00:21:11;100821.03;;;21.57;41.47
42621;BME280;28252;53.336;-6.298;2022-12-18T00:21:42;100819.38;;;21.56;41.60
42621;BME280;28252;53.336;-6.298;2022-12-18T00:22:14;100817.81;;;21.61;41.39
42621;BME280;28252;53.336;-6.298;2022-12-18T00:22:45;100812.72;;;21.58;41.44
42621;BME280;28252;53.336;-6.298;2022-12-18T00:23:15;100814.97;;;21.55;41.48
42621;BME280;28252;53.336;-6.298;2022-12-18T00:23:47;100818.50;;;21.55;41.49
42621;BME280;28252;53.336;-6.298;2022-12-18T00:24:18;100816.34;;;21.51;41.63
42621;BME280;28252;53.336;-6.298;2022-12-18T00:24:49;100819.22;;;21.49;41.56
42621;BME280;28252;53.336;-6.298;2022-12-18T00:25:20;100814.63;;;21.50;41.63
42621;BME280;28252;53.336;-6.298;2022-12-18T00:25:52;100822.78;;;21.50;41.58
42621;BME280;28252;53.336;-6.298;2022-12-18T00:26:24;100813.97;;;21.48;41.82
42621;BME280;28252;53.336;-6.298;2022-12-18T00:26:55;100811.59;;;21.44;41.81
42621;BME280;28252;53.336;-6.298;2022-12-18T00:27:26;100813.28;;;21.45;41.69
42621;BME280;28252;53.336;-6.298;2022-12-18T00:27:57;100817.00;;;21.44;41.66
42621;BME280;28252;53.336;-6.298;2022-12-18T00:28:28;100821.75;;;21.42;41.62
42621;BME280;28252;53.336;-6.298;2022-12-18T00:29:00;100817.00;;;21.44;41.63
42621;BME280;28252;53.336;-6.298;2022-12-18T00:29:32;100818.22;;;21.42;41.72
42621;BME280;28252;53.336;-6.298;2022-12-18T00:30:03;100818.56;;;21.39;41.76
42621;BME280;28252;53.336;-6.298;2022-12-18T00:30:34;100817.69;;;21.38;41.75
42621;BME280;28252;53.336;-6.298;2022-12-18T00:31:07;100822.28;;;21.38;41.75
42621;BME280;28252;53.336;-6.298;2022-12-18T00:31:38;100817.53;;;21.40;41.74
42621;BME280;28252;53.336;-6.298;2022-12-18T00:32:09;100818.91;;;21.36;41.84
42621;BME280;28252;53.336;-6.298;2022-12-18T00:32:40;100823.66;;;21.34;41.93
42621;BME280;28252;53.336;-6.298;2022-12-18T00:33:11;100818.25;;;21.34;41.72
42621;BME280;28252;53.336;-6.298;2022-12-18T00:33:42;100817.38;;;21.33;41.82
42621;BME280;28252;53.336;-6.298;2022-12-18T00:34:13;100813.84;;;21.33;41.72
42621;BME280;28252;53.336;-6.298;2022-12-18T00:34:44;100816.72;;;21.31;41.82
42621;BME280;28252;53.336;-6.298;2022-12-18T00:35:15;100817.19;;;21.35;41.37
42621;BME280;28252;53.336;-6.298;2022-12-18T00:35:46;100824.50;;;21.34;41.67
42621;BME280;28252;53.336;-6.298;2022-12-18T00:36:18;100824.66;;;21.33;41.61
42621;BME280;28252;53.336;-6.298;2022-12-18T00:36:49;100825.66;;;21.32;41.67
42621;BME280;28252;53.336;-6.298;2022-12-18T00:37:20;100823.66;;;21.34;41.64
42621;BME280;28252;53.336;-6.298;2022-12-18T00:37:52;100821.13;;;21.32;41.72
42621;BME280;28252;53.336;-6.298;2022-12-18T00:38:23;100825.50;;;21.33;41.75
42621;BME280;28252;53.336;-6.298;2022-12-18T00:38:55;100822.44;;;21.36;41.45
42621;BME280;28252;53.336;-6.298;2022-12-18T00:39:26;100819.75;;;21.36;41.40
42621;BME280;28252;53.336;-6.298;2022-12-18T00:39:57;100815.53;;;21.34;41.56
42621;BME280;28252;53.336;-6.298;2022-12-18T00:40:28;100821.63;;;21.27;41.51
42621;BME280;28252;53.336;-6.298;2022-12-18T00:40:59;100821.97;;;21.24;41.59
42621;BME280;28252;53.336;-6.298;2022-12-18T00:41:30;100819.44;;;21.23;41.67
42621;BME280;28252;53.336;-6.298;2022-12-18T00:42:20;100811.13;;;21.24;41.68
42621;BME280;28252;53.336;-6.298;2022-12-18T00:43:09;100812.34;;;21.22;41.68
42621;BME280;28252;53.336;-6.298;2022-12-18T00:43:40;100820.81;;;21.19;41.70
42621;BME280;28252;53.336;-6.298;2022-12-18T00:44:12;100798.16;;;21.20;41.77
42621;BME280;28252;53.336;-6.298;2022-12-18T00:44:44;100822.53;;;21.20;41.76
42621;BME280;28252;53.336;-6.298;2022-12-18T00:45:15;100807.94;;;21.21;41.58
42621;BME280;28252;53.336;-6.298;2022-12-18T00:45:46;100815.06;;;21.22;41.67
42621;BME280;28252;53.336;-6.298;2022-12-18T00:46:17;100808.59;;;21.23;41.46
42621;BME280;28252;53.336;-6.298;2022-12-18T00:46:48;100806.59;;;21.25;41.39
42621;BME280;28252;53.336;-6.298;2022-12-18T00:47:20;100810.31;;;21.24;41.44
42621;BME280;28252;53.336;-6.298;2022-12-18T00:47:51;100809.66;;;21.22;41.37
42621;BME280;28252;53.336;-6.298;2022-12-18T00:48:22;100805.72;;;21.24;41.40
42621;BME280;28252;53.336;-6.298;2022-12-18T00:48:53;100804.22;;;21.22;41.44
42621;BME280;28252;53.336;-6.298;2022-12-18T00:49:24;100805.91;;;21.23;41.58
42621;BME280;28252;53.336;-6.298;2022-12-18T00:49:54;100797.78;;;21.23;41.34
42621;BME280;28252;53.336;-6.298;2022-12-18T00:50:25;100806.94;;;21.22;41.39
42621;BME280;28252;53.336;-6.298;2022-12-18T00:50:56;100803.56;;;21.20;41.30
42621;BME280;28252;53.336;-6.298;2022-12-18T00:51:28;100805.22;;;21.21;41.44
42621;BME280;28252;53.336;-6.298;2022-12-18T00:51:59;100805.22;;;21.21;41.30
42621;BME280;28252;53.336;-6.298;2022-12-18T00:52:30;100808.78;;;21.21;41.36
42621;BME280;28252;53.336;-6.298;2022-12-18T00:53:01;100795.75;;;21.25;41.27
42621;BME280;28252;53.336;-6.298;2022-12-18T00:53:31;100805.56;;;21.18;41.29
42621;BME280;28252;53.336;-6.298;2022-12-18T00:54:02;100812.69;;;21.19;41.36
42621;BME280;28252;53.336;-6.298;2022-12-18T00:54:33;100799.81;;;21.21;41.25
42621;BME280;28252;53.336;-6.298;2022-12-18T00:55:04;100811.31;;;21.23;41.10
42621;BME280;28252;53.336;-6.298;2022-12-18T00:55:37;100810.66;;;21.21;41.29
42621;BME280;28252;53.336;-6.298;2022-12-18T00:56:08;100804.75;;;21.17;41.26
42621;BME280;28252;53.336;-6.298;2022-12-18T00:56:39;100805.41;;;21.19;41.25
42621;BME280;28252;53.336;-6.298;2022-12-18T00:57:10;100796.44;;;21.19;41.28
42621;BME280;28252;53.336;-6.298;2022-12-18T00:57:41;100807.78;;;21.14;41.55
42621;BME280;28252;53.336;-6.298;2022-12-18T00:58:13;100802.19;;;21.16;41.31
42621;BME280;28252;53.336;-6.298;2022-12-18T00:58:44;100799.50;;;21.16;41.25
42621;BME280;28252;53.336;-6.298;2022-12-18T00:59:15;100798.81;;;21.22;41.11
42621;BME280;28252;53.336;-6.298;2022-12-18T00:59:46;100802.34;;;21.22;41.16
42621;BME280;28252;53.336;-6.298;2022-12-18T01:00:17;100806.06;;;21.21;41.08
42621;BME280;28252;53.336;-6.298;2022-12-18T01:00:49;100795.44;;;21.20;41.05
42621;BME280;28252;53.336;-6.298;2022-12-18T01:01:20;100801.03;;;21.18;41.19
42621;BME280;28252;53.336;-6.298;2022-12-18T01:01:51;100800.53;;;21.15;41.38
42621;BME280;28252;53.336;-6.298;2022-12-18T01:02:22;100806.63;;;21.08;41.56
42621;BME280;28252;53.336;-6.298;2022-12-18T01:02:53;100806.97;;;21.05;41.63
42621;BME280;28252;53.336;-6.298;2022-12-18T01:03:24;100806.81;;;21.07;41.56
42621;BME280;28252;53.336;-6.298;2022-12-18T01:03:59;100808.50;;;21.08;41.44
42621;BME280;28252;53.336;-6.298;2022-12-18T01:04:33;100802.22;;;21.07;41.34
42621;BME280;28252;53.336;-6.298;2022-12-18T01:05:04;100803.25;;;21.06;41.45
42621;BME280;28252;53.336;-6.298;2022-12-18T01:05:38;100803.25;;;21.06;41.38
42621;BME280;28252;53.336;-6.298;2022-12-18T01:06:10;100806.81;;;21.07;41.42
42621;BME280;28252;53.336;-6.298;2022-12-18T01:06:42;100804.25;;;21.14;41.16
42621;BME280;28252;53.336;-6.298;2022-12-18T01:07:13;100801.53;;;21.14;41.31
42621;BME280;28252;53.336;-6.298;2022-12-18T01:07:44;100800.31;;;21.16;41.22
42621;BME280;28252;53.336;-6.298;2022-12-18T01:08:15;100804.25;;;21.14;41.26
42621;BME280;28252;53.336;-6.298;2022-12-18T01:08:46;100798.00;;;21.13;41.41
42621;BME280;28252;53.336;-6.298;2022-12-18T01:09:17;100791.72;;;21.13;41.18
42621;BME280;28252;53.336;-6.298;2022-12-18T01:09:48;100795.13;;;21.06;41.42
42621;BME280;28252;53.336;-6.298;2022-12-18T01:10:18;100795.97;;;21.07;41.33
42621;BME280;28252;53.336;-6.298;2022-12-18T01:10:50;100794.47;;;21.04;41.32
42621;BME280;28252;53.336;-6.298;2022-12-18T01:11:21;100793.78;;;21.02;41.33
42621;BME280;28252;53.336;-6.298;2022-12-18T01:11:52;100796.47;;;21.02;41.29
42621;BME280;28252;53.336;-6.298;2022-12-18T01:12:23;100795.81;;;21.00;41.42
42621;BME280;28252;53.336;-6.298;2022-12-18T01:12:54;100796.66;;;21.01;41.31
42621;BME280;28252;53.336;-6.298;2022-12-18T01:13:24;100783.97;;;21.01;41.33
42621;BME280;28252;53.336;-6.298;2022-12-18T01:13:55;100779.75;;;20.99;41.53
42621;BME280;28252;53.336;-6.298;2022-12-18T01:14:27;100778.56;;;21.01;41.33
42621;BME280;28252;53.336;-6.298;2022-12-18T01:14:58;100781.44;;;21.00;41.38
42621;BME280;28252;53.336;-6.298;2022-12-18T01:15:29;100784.66;;;20.95;41.56
42621;BME280;28252;53.336;-6.298;2022-12-18T01:16:00;100782.78;;;20.96;41.40
42621;BME280;28252;53.336;-6.298;2022-12-18T01:16:30;100775.53;;;20.96;41.59
42621;BME280;28252;53.336;-6.298;2022-12-18T01:17:01;100775.53;;;20.96;41.34
42621;BME280;28252;53.336;-6.298;2022-12-18T01:17:34;100779.06;;;20.97;41.39
42621;BME280;28252;53.336;-6.298;2022-12-18T01:18:05;100777.03;;;20.99;41.37
42621;BME280;28252;53.336;-6.298;2022-12-18T01:18:36;100775.16;;;20.99;41.38
42621;BME280;28252;53.336;-6.298;2022-12-18T01:19:07;100774.50;;;20.89;41.46
42621;BME280;28252;53.336;-6.298;2022-12-18T01:19:38;100778.75;;;20.92;41.54
42621;BME280;28252;53.336;-6.298;2022-12-18T01:20:10;100777.41;;;20.87;41.67
42621;BME280;28252;53.336;-6.298;2022-12-18T01:20:42;100776.56;;;20.87;41.53
42621;BME280;28252;53.336;-6.298;2022-12-18T01:21:14;100783.66;;;20.88;41.60
42621;BME280;28252;53.336;-6.298;2022-12-18T01:21:46;100779.25;;;20.87;41.57
42621;BME280;28252;53.336;-6.298;2022-12-18T01:22:17;100775.38;;;20.89;41.42
42621;BME280;28252;53.336;-6.298;2022-12-18T01:22:48;100781.63;;;20.90;41.48
42621;BME280;28252;53.336;-6.298;2022-12-18T01:23:19;100780.63;;;20.91;41.47
42621;BME280;28252;53.336;-6.298;2022-12-18T01:23:51;100782.28;;;20.92;41.39
42621;BME280;28252;53.336;-6.298;2022-12-18T01:24:22;100781.78;;;20.88;41.42
42621;BME280;28252;53.336;-6.298;2022-12-18T01:24:53;100780.28;;;20.86;41.58
42621;BME280;28252;53.336;-6.298;2022-12-18T01:25:24;100776.38;;;20.88;41.59
42621;BME280;28252;53.336;-6.298;2022-12-18T01:25:55;100773.84;;;20.87;41.46
42621;BME280;28252;53.336;-6.298;2022-12-18T01:26:26;100774.88;;;20.86;41.60
42621;BME280;28252;53.336;-6.298;2022-12-18T01:27:00;100773.19;;;20.85;41.59
42621;BME280;28252;53.336;-6.298;2022-12-18T01:27:31;100772.34;;;20.84;41.56
42621;BME280;28252;53.336;-6.298;2022-12-18T01:28:02;100764.38;;;20.83;41.83
42621;BME280;28252;53.336;-6.298;2022-12-18T01:28:33;100769.81;;;20.83;41.79
42621;BME280;28252;53.336;-6.298;2022-12-18T01:29:04;100772.84;;;20.88;41.52
42621;BME280;28252;53.336;-6.298;2022-12-18T01:29:35;100772.19;;;20.86;41.58
42621;BME280;28252;53.336;-6.298;2022-12-18T01:30:06;100772.84;;;20.88;41.46
42621;BME280;28252;53.336;-6.298;2022-12-18T01:30:37;100772.84;;;20.88;41.45
42621;BME280;28252;53.336;-6.298;2022-12-18T01:31:45;100770.16;;;20.80;41.65
42621;BME280;28252;53.336;-6.298;2022-12-18T01:32:16;100776.41;;;20.80;41.74
42621;BME280;28252;53.336;-6.298;2022-12-18T01:32:47;100774.56;;;20.81;41.54
42621;BME280;28252;53.336;-6.298;2022-12-18T01:33:18;100770.16;;;20.80;41.79
42621;BME280;28252;53.336;-6.298;2022-12-18T01:33:49;100776.94;;;20.76;41.78
42621;BME280;28252;53.336;-6.298;2022-12-18T01:34:20;100766.78;;;20.78;41.75
42621;BME280;28252;53.336;-6.298;2022-12-18T01:34:51;100765.06;;;20.77;41.75
42621;BME280;28252;53.336;-6.298;2022-12-18T01:35:22;100773.19;;;20.77;41.76
42621;BME280;28252;53.336;-6.298;2022-12-18T01:35:53;100763.56;;;20.82;41.71
42621;BME280;28252;53.336;-6.298;2022-12-18T01:36:26;100775.56;;;20.80;41.86
42621;BME280;28252;53.336;-6.298;2022-12-18T01:36:57;100762.53;;;20.75;41.88
42621;BME280;28252;53.336;-6.298;2022-12-18T01:37:28;100765.06;;;20.77;41.75
42621;BME280;28252;53.336;-6.298;2022-12-18T01:37:59;100762.53;;;20.75;41.67
42621;BME280;28252;53.336;-6.298;2022-12-18T01:38:30;100762.69;;;20.74;41.78
42621;BME280;28252;53.336;-6.298;2022-12-18T01:39:02;100763.06;;;20.70;41.78
42621;BME280;28252;53.336;-6.298;2022-12-18T01:39:33;100759.00;;;20.66;41.91
42621;BME280;28252;53.336;-6.298;2022-12-18T01:40:05;100761.38;;;20.69;41.82
42621;BME280;28252;53.336;-6.298;2022-12-18T01:40:36;100765.56;;;20.72;41.83
42621;BME280;28252;53.336;-6.298;2022-12-18T01:41:07;100765.41;;;20.74;41.65
42621;BME280;28252;53.336;-6.298;2022-12-18T01:41:39;100754.59;;;20.74;41.81
42621;BME280;28252;53.336;-6.298;2022-12-18T01:42:28;100760.00;;;20.74;41.98
42621;BME280;28252;53.336;-6.298;2022-12-18T01:42:59;100761.69;;;20.75;42.07
42621;BME280;28252;53.336;-6.298;2022-12-18T01:43:47;100754.59;;;20.74;41.91
42621;BME280;28252;53.336;-6.298;2022-12-18T01:45:42;100745.13;;;20.69;42.29
42621;BME280;28252;53.336;-6.298;2022-12-18T01:46:13;100739.72;;;20.69;42.12
42621;BME280;28252;53.336;-6.298;2022-12-18T01:46:44;100748.66;;;20.70;42.21
42621;BME280;28252;53.336;-6.298;2022-12-18T01:47:21;100743.44;;;20.68;42.31
42621;BME280;28252;53.336;-6.298;2022-12-18T01:48:00;100744.13;;;20.70;42.19
42621;BME280;28252;53.336;-6.298;2022-12-18T01:48:32;100743.09;;;20.71;42.17
42621;BME280;28252;53.336;-6.298;2022-12-18T01:49:03;100747.00;;;20.69;42.15
42621;BME280;28252;53.336;-6.298;2022-12-18T01:49:34;100739.06;;;20.67;42.20
42621;BME280;28252;53.336;-6.298;2022-12-18T01:50:37;100737.34;;;20.66;42.14
42621;BME280;28252;53.336;-6.298;2022-12-18T01:51:10;100724.47;;;20.68;42.23
42621;BME280;28252;53.336;-6.298;2022-12-18T01:51:42;100734.66;;;20.66;42.14
42621;BME280;28252;53.336;-6.298;2022-12-18T01:52:13;100733.63;;;20.67;42.22
42621;BME280;28252;53.336;-6.298;2022-12-18T01:52:57;100733.81;;;20.66;42.12
42621;BME280;28252;53.336;-6.298;2022-12-18T01:53:29;100723.81;;;20.66;42.17
42621;BME280;28252;53.336;-6.298;2022-12-18T01:54:00;100721.94;;;20.67;42.28
42621;BME280;28252;53.336;-6.298;2022-12-18T01:54:30;100717.22;;;20.69;42.32
42621;BME280;28252;53.336;-6.298;2022-12-18T01:55:02;100719.06;;;20.68;42.27
42621;BME280;28252;53.336;-6.298;2022-12-18T01:55:37;100719.06;;;20.68;42.21
42621;BME280;28252;53.336;-6.298;2022-12-18T01:56:14;100718.25;;;20.68;42.19
42621;BME280;28252;53.336;-6.298;2022-12-18T01:56:45;100725.84;;;20.73;42.20
42621;BME280;28252;53.336;-6.298;2022-12-18T01:57:17;100724.97;;;20.72;42.08
42621;BME280;28252;53.336;-6.298;2022-12-18T01:57:47;100715.50;;;20.76;41.91
42621;BME280;28252;53.336;-6.298;2022-12-18T01:58:23;100728.03;;;20.77;41.90
42621;BME280;28252;53.336;-6.298;2022-12-18T01:58:59;100725.13;;;20.79;41.88
42621;BME280;28252;53.336;-6.298;2022-12-18T01:59:33;100721.41;;;20.80;42.03
42621;BME280;28252;53.336;-6.298;2022-12-18T02:00:06;100725.13;;;20.79;41.75
42621;BME280;28252;53.336;-6.298;2022-12-18T02:00:39;100721.09;;;20.83;41.70
42621;BME280;28252;53.336;-6.298;2022-12-18T02:01:11;100728.16;;;20.84;41.64
42621;BME280;28252;53.336;-6.298;2022-12-18T02:01:42;100719.88;;;20.85;41.70
42621;BME280;28252;53.336;-6.298;2022-12-18T02:02:13;100719.34;;;20.90;41.64
42621;BME280;28252;53.336;-6.298;2022-12-18T02:02:46;100720.38;;;20.89;41.52
42621;BME280;28252;53.336;-6.298;2022-12-18T02:03:17;100713.28;;;20.88;41.58
42621;BME280;28252;53.336;-6.298;2022-12-18T02:03:49;100716.16;;;20.86;41.78
42621;BME280;28252;53.336;-6.298;2022-12-18T02:04:24;100713.44;;;20.86;41.59
42621;BME280;28252;53.336;-6.298;2022-12-18T02:04:56;100714.94;;;20.89;41.58
42621;BME280;28252;53.336;-6.298;2022-12-18T02:05:40;100709.53;;;20.89;41.67
42621;BME280;28252;53.336;-6.298;2022-12-18T02:06:45;100709.84;;;20.94;41.63
42621;BME280;28252;53.336;-6.298;2022-12-18T02:07:57;100702.75;;;21.01;41.58
42621;BME280;28252;53.336;-6.298;2022-12-18T02:08:40;100705.09;;;21.04;41.28
42621;BME280;28252;53.336;-6.298;2022-12-18T02:09:15;100702.03;;;21.07;41.27
42621;BME280;28252;53.336;-6.298;2022-12-18T02:10:30;100696.97;;;21.04;41.30
42621;BME280;28252;53.336;-6.298;2022-12-18T02:11:40;100698.31;;;21.08;41.15
42621;BME280;28252;53.336;-6.298;2022-12-18T02:12:19;100694.22;;;21.13;41.17
42621;BME280;28252;53.336;-6.298;2022-12-18T02:13:29;100694.22;;;21.13;41.10
42621;BME280;28252;53.336;-6.298;2022-12-18T02:15:34;100684.38;;;21.20;40.90
42621;BME280;28252;53.336;-6.298;2022-12-18T02:17:26;100677.94;;;21.21;41.02
42621;BME280;28252;53.336;-6.298;2022-12-18T02:18:23;100689.59;;;21.21;40.89
42621;BME280;28252;53.336;-6.298;2022-12-18T02:18:54;100682.00;;;21.25;40.91
42621;BME280;28252;53.336;-6.298;2022-12-18T02:19:41;100685.69;;;21.24;40.79
42621;BME280;28252;53.336;-6.298;2022-12-18T02:20:52;100685.19;;;21.29;40.77
42621;BME280;28252;53.336;-6.298;2022-12-18T02:21:50;100686.69;;;21.31;40.67
42621;BME280;28252;53.336;-6.298;2022-12-18T02:26:28;100683.22;;;21.45;40.39
42621;BME280;28252;53.336;-6.298;2022-12-18T02:27:04;100684.91;;;21.47;40.47
42621;BME280;28252;53.336;-6.298;2022-12-18T02:27:36;100686.94;;;21.53;40.34
42621;BME280;28252;53.336;-6.298;2022-12-18T02:28:09;100677.09;;;21.52;40.27
42621;BME280;28252;53.336;-6.298;2022-12-18T02:28:44;100687.28;;;21.50;40.37
42621;BME280;28252;53.336;-6.298;2022-12-18T02:29:25;100682.88;;;21.49;40.28
42621;BME280;28252;53.336;-6.298;2022-12-18T02:29:59;100677.75;;;21.54;40.30
42621;BME280;28252;53.336;-6.298;2022-12-18T02:30:31;100674.69;;;21.57;40.24
42621;BME280;28252;53.336;-6.298;2022-12-18T02:31:04;100676.38;;;21.58;40.22
42621;BME280;28252;53.336;-6.298;2022-12-18T02:31:38;100676.75;;;21.55;40.17
42621;BME280;28252;53.336;-6.298;2022-12-18T02:32:12;100678.06;;;21.59;40.12
42621;BME280;28252;53.336;-6.298;2022-12-18T02:32:46;100672.16;;;21.55;40.07
42621;BME280;28252;53.336;-6.298;2022-12-18T02:33:19;100669.75;;;21.60;40.23
42621;BME280;28252;53.336;-6.298;2022-12-18T02:33:52;100677.34;;;21.65;39.89
42621;BME280;28252;53.336;-6.298;2022-12-18T02:34:29;100673.81;;;21.64;40.14
42621;BME280;28252;53.336;-6.298;2022-12-18T02:35:02;100673.81;;;21.64;40.11
42621;BME280;28252;53.336;-6.298;2022-12-18T02:35:34;100670.25;;;21.64;40.04
42621;BME280;28252;53.336;-6.298;2022-12-18T02:36:07;100672.41;;;21.69;39.83
42621;BME280;28252;53.336;-6.298;2022-12-18T02:36:39;100678.47;;;21.71;39.91
42621;BME280;28252;53.336;-6.298;2022-12-18T02:37:12;100674.94;;;21.70;39.89
42621;BME280;28252;53.336;-6.298;2022-12-18T02:37:45;100676.28;;;21.74;39.84
42621;BME280;28252;53.336;-6.298;2022-12-18T02:38:17;100672.53;;;21.75;39.83
42621;BME280;28252;53.336;-6.298;2022-12-18T02:38:48;100678.78;;;21.76;39.88
42621;BME280;28252;53.336;-6.298;2022-12-18T02:39:21;100675.53;;;21.80;39.63
42621;BME280;28252;53.336;-6.298;2022-12-18T02:39:52;100677.59;;;21.78;39.77
42621;BME280;28252;53.336;-6.298;2022-12-18T02:40:26;100676.38;;;21.81;39.70
42621;BME280;28252;53.336;-6.298;2022-12-18T02:40:58;100679.28;;;21.79;39.58
42621;BME280;28252;53.336;-6.298;2022-12-18T02:41:30;100676.19;;;21.82;39.70
42621;BME280;28252;53.336;-6.298;2022-12-18T02:42:01;100671.47;;;21.85;39.66
42621;BME280;28252;53.336;-6.298;2022-12-18T02:42:38;100671.25;;;21.86;39.51
42621;BME280;28252;53.336;-6.298;2022-12-18T02:43:10;100675.66;;;21.87;39.52
42621;BME280;28252;53.336;-6.298;2022-12-18T02:44:10;100668.00;;;21.91;39.49
42621;BME280;28252;53.336;-6.298;2022-12-18T02:44:34;100659.69;;;21.92;39.42
42621;BME280;28252;53.336;-6.298;2022-12-18T02:45:06;100671.19;;;21.94;39.54
42621;BME280;28252;53.336;-6.298;2022-12-18T02:45:46;100672.06;;;21.95;39.37
42621;BME280;28252;53.336;-6.298;2022-12-18T02:46:57;100663.06;;;21.94;39.47
42621;BME280;28252;53.336;-6.298;2022-12-18T02:47:29;100662.50;;;21.99;39.40
42621;BME280;28252;53.336;-6.298;2022-12-18T02:48:01;100655.03;;;22.01;39.41
42621;BME280;28252;53.336;-6.298;2022-12-18T02:48:33;100654.19;;;22.00;39.17
42621;BME280;28252;53.336;-6.298;2022-12-18T02:49:06;100658.41;;;22.03;39.38
42621;BME280;28252;53.336;-6.298;2022-12-18T02:49:59;100645.53;;;22.05;39.25
42621;BME280;28252;53.336;-6.298;2022-12-18T02:50:42;100650.53;;;22.08;39.35
42621;BME280;28252;53.336;-6.298;2022-12-18T02:51:18;100657.66;;;22.09;39.29
42621;BME280;28252;53.336;-6.298;2022-12-18T02:52:08;100656.09;;;22.15;38.90
42621;BME280;28252;53.336;-6.298;2022-12-18T02:52:52;100646.94;;;22.16;39.02
42621;BME280;28252;53.336;-6.298;2022-12-18T02:53:28;100645.69;;;22.18;39.11
42621;BME280;28252;53.336;-6.298;2022-12-18T02:54:14;100649.47;;;22.17;39.01
42621;BME280;28252;53.336;-6.298;2022-12-18T02:57:02;100647.41;;;22.19;39.01
42621;BME280;28252;53.336;-6.298;2022-12-18T02:57:34;100656.47;;;22.27;38.97
42621;BME280;28252;53.336;-6.298;2022-12-18T02:59:23;100654.63;;;22.27;38.92
42621;BME280;28252;53.336;-6.298;2022-12-18T02:59:45;100641.44;;;22.24;38.94
42621;BME280;28252;53.336;-6.298;2022-12-18T03:00:21;100650.41;;;22.25;38.93
42621;BME280;28252;53.336;-6.298;2022-12-18T03:01:00;100634.13;;;22.25;39.04
42621;BME280;28252;53.336;-6.298;2022-12-18T03:02:30;100634.06;;;22.33;38.76
42621;BME280;28252;53.336;-6.298;2022-12-18T03:03:36;100632.66;;;22.37;38.85
42621;BME280;28252;53.336;-6.298;2022-12-18T03:04:12;100622.09;;;22.42;38.63
42621;BME280;28252;53.336;-6.298;2022-12-18T03:04:52;100621.91;;;22.44;38.68
42621;BME280;28252;53.336;-6.298;2022-12-18T03:05:28;100623.97;;;22.42;38.56
42621;BME280;28252;53.336;-6.298;2022-12-18T03:06:06;100619.00;;;22.45;38.63
42621;BME280;28252;53.336;-6.298;2022-12-18T03:06:41;100625.25;;;22.46;38.48
42621;BME280;28252;53.336;-6.298;2022-12-18T03:07:15;100620.34;;;22.49;38.56
42621;BME280;28252;53.336;-6.298;2022-12-18T03:07:57;100617.03;;;22.54;38.47
42621;BME280;28252;53.336;-6.298;2022-12-18T03:08:31;100623.69;;;22.51;38.40
42621;BME280;28252;53.336;-6.298;2022-12-18T03:09:04;100621.16;;;22.50;38.57